Time;durP1;ratioP1;P1;durP2;ratioP2;P2;SDS_P1;SDS_P2;PMS_P1;PMS_P2;Temp;Humidity;BMP_temperature;BMP_pressure;BME280_temperature;BME280_humidity;BME280_pressure;Samples;Min_cycle;Max_cycle;Signal;HPM_P1;HPM_P2
2022/11/30 00:01:15;;;;;;;9.05;8.15;;;;;;;5.13;100.00;98805.88;15279857;19;20463;-53
2022/11/30 00:06:39;;;;;;;9.02;7.70;;;;;;;5.11;100.00;98799.78;15282229;19;20094;-51
2022/11/30 00:12:04;;;;;;;8.98;8.18;;;;;;;5.04;100.00;98800.25;15275671;19;20019;-50
2022/11/30 00:17:31;;;;;;;9.30;8.30;;;;;;;5.08;100.00;98798.22;15275926;19;20024;-50
2022/11/30 00:22:57;;;;;;;9.70;8.70;;;;;;;5.04;100.00;98794.94;15280273;19;20489;-54
2022/11/30 00:28:21;;;;;;;9.40;8.50;;;;;;;5.05;100.00;98795.75;15278300;19;20026;-53
2022/11/30 00:33:49;;;;;;;10.75;9.60;;;;;;;5.06;100.00;98800.13;15278655;19;20494;-57
2022/11/30 00:39:13;;;;;;;9.73;8.82;;;;;;;5.06;100.00;98794.78;15277087;19;20014;-51
2022/11/30 00:44:38;;;;;;;9.57;8.77;;;;;;;5.06;100.00;98803.66;15274437;19;20018;-52
2022/11/30 00:50:06;;;;;;;9.60;8.70;;;;;;;5.08;100.00;98814.22;15276726;19;20018;-53
2022/11/30 00:55:31;;;;;;;9.80;8.80;;;;;;;5.08;100.00;98814.22;15266246;19;20037;-53
2022/11/30 01:00:56;;;;;;;9.75;8.75;;;;;;;5.06;100.00;98800.13;15278196;19;20022;-50
2022/11/30 01:06:23;;;;;;;9.73;8.82;;;;;;;5.07;100.00;98817.88;15272748;19;20018;-56
2022/11/30 01:11:48;;;;;;;10.05;9.05;;;;;;;5.07;100.00;98829.38;15271112;19;20781;-54
2022/11/30 01:17:13;;;;;;;9.40;8.50;;;;;;;5.07;100.00;98833.88;15275174;19;20019;-55
2022/11/30 01:22:47;;;;;;;10.15;8.70;;;;;;;5.07;100.00;98823.22;15269715;19;20011;-55
2022/11/30 01:28:12;;;;;;;10.73;9.38;;;;;;;5.05;100.00;98809.13;15271876;19;20320;-54
2022/11/30 01:33:37;;;;;;;10.07;9.10;;;;;;;5.03;100.00;98816.38;15275101;19;20044;-53
2022/11/30 01:39:04;;;;;;;9.98;8.98;;;;;;;5.02;100.00;98812.00;15272683;19;20094;-53
2022/11/30 01:44:59;;;;;;;10.80;9.70;;;;;;;5.01;100.00;98807.63;15277911;19;20025;-57
2022/11/30 01:50:29;;;;;;;10.30;9.30;;;;;;;5.01;100.00;98816.50;15274314;19;20094;-55
2022/11/30 01:55:58;;;;;;;9.93;8.93;;;;;;;5.01;100.00;98823.66;15266170;19;20782;-57
2022/11/30 02:01:22;;;;;;;10.00;9.10;;;;;;;5.00;100.00;98822.81;15272778;19;20467;-51
2022/11/30 02:06:48;;;;;;;9.40;8.50;;;;;;;4.99;100.00;98830.94;15268740;19;20505;-52
2022/11/30 02:12:29;;;;;;;9.85;8.95;;;;;;;4.99;100.00;98825.63;15268025;19;20025;-50
2022/11/30 02:18:02;;;;;;;11.13;10.02;;;;;;;5.00;100.00;98819.31;15267857;19;20677;-55
2022/11/30 02:23:38;;;;;;;;;;;;;;;4.95;100.00;98819.63;15272935;19;20022;-50
2022/11/30 02:29:15;;;;;;;9.63;8.73;;;;;;;4.94;100.00;98807.25;15269415;19;19934;-55
2022/11/30 02:34:43;;;;;;;10.27;9.18;;;;;;;4.94;100.00;98813.44;15272680;19;20097;-53
2022/11/30 02:40:08;;;;;;;9.52;8.63;;;;;;;4.94;100.00;98808.13;15272224;19;20011;-53
2022/11/30 02:45:40;;;;;;;9.32;8.40;;;;;;;4.94;100.00;98815.25;15265948;19;20041;-50
2022/11/30 02:51:09;;;;;;;9.57;8.68;;;;;;;4.93;100.00;98818.91;15270700;19;20023;-51
2022/11/30 02:56:35;;;;;;;9.65;7.82;;;;;;;4.91;100.00;98819.00;15259586;19;20035;-54
2022/11/30 03:02:02;;;;;;;9.52;8.60;;;;;;;4.89;100.00;98814.75;15263059;19;20448;-54
2022/11/30 03:07:27;;;;;;;9.43;8.52;;;;;;;4.82;100.00;98814.38;15267710;19;20465;-50
2022/11/30 03:12:52;;;;;;;9.95;8.95;;;;;;;4.80;100.00;98818.13;15267891;19;20014;-53
2022/11/30 03:18:19;;;;;;;10.45;9.45;;;;;;;4.77;100.00;98829.88;15270638;19;20479;-51
2022/11/30 03:23:44;;;;;;;10.00;8.98;;;;;;;4.78;100.00;98834.25;15284784;19;20037;-53
2022/11/30 03:29:08;;;;;;;10.95;9.20;;;;;;;4.76;100.00;98826.38;15280378;19;20066;-52
2022/11/30 03:34:36;;;;;;;10.43;9.32;;;;;;;4.76;100.00;98839.72;15284907;19;20021;-56
2022/11/30 03:40:00;;;;;;;9.98;8.68;;;;;;;4.77;100.00;98848.56;15281119;19;20025;-55
2022/11/30 03:45:25;;;;;;;10.00;8.80;;;;;;;4.76;100.00;98847.72;15273919;19;20451;-52
2022/11/30 03:50:52;;;;;;;9.20;8.30;;;;;;;4.76;100.00;98849.53;15279244;19;20104;-53
2022/11/30 03:56:19;;;;;;;10.20;8.48;;;;;;;4.76;100.00;98852.22;15267050;19;20025;-57
2022/11/30 04:01:43;;;;;;;8.45;7.65;;;;;;;4.74;100.00;98856.81;15280786;19;20011;-52
2022/11/30 04:07:11;;;;;;;8.85;7.97;;;;;;;4.75;100.00;98850.50;15281939;19;20090;-55
2022/11/30 04:12:36;;;;;;;9.25;8.35;;;;;;;4.74;100.00;98854.16;15273590;19;20093;-54
2022/11/30 04:18:01;;;;;;;8.35;7.55;;;;;;;4.73;100.00;98853.28;15274879;19;20579;-56
2022/11/30 04:23:32;;;;;;;8.88;7.97;;;;;;;4.73;100.00;98850.59;15275804;19;20454;-56
2022/11/30 04:28:57;;;;;;;8.27;7.47;;;;;;;4.73;100.00;98852.44;15281420;19;20022;-51
2022/11/30 04:34:22;;;;;;;7.97;7.18;;;;;;;4.70;100.00;98847.31;15280718;19;20014;-50
2022/11/30 04:39:49;;;;;;;8.20;7.38;;;;;;;4.68;100.00;98849.25;15281490;19;20015;-54
2022/11/30 04:45:13;;;;;;;7.57;6.80;;;;;;;4.66;100.00;98843.16;15268872;19;20025;-53
2022/11/30 04:50:38;;;;;;;8.25;7.43;;;;;;;4.63;100.00;98844.25;15276997;19;20023;-55
2022/11/30 04:56:10;;;;;;;8.18;7.38;;;;;;;4.61;100.00;98848.84;15276155;19;20022;-53
2022/11/30 05:01:35;;;;;;;8.20;7.40;;;;;;;4.59;100.00;98848.09;15277791;19;20018;-50
2022/11/30 05:07:00;;;;;;;8.13;7.38;;;;;;;4.56;100.00;98849.19;15272779;19;20463;-51
2022/11/30 05:12:27;;;;;;;8.23;7.43;;;;;;;4.55;100.00;98851.97;15275123;19;20371;-53
2022/11/30 05:17:51;;;;;;;8.13;7.32;;;;;;;4.53;100.00;98867.25;15272364;19;20438;-57
2022/11/30 05:23:23;;;;;;;8.13;7.32;;;;;;;4.51;100.00;98874.50;15278284;19;20106;-54
2022/11/30 05:28:50;;;;;;;8.33;7.53;;;;;;;4.44;100.00;98869.63;15276261;19;20022;-50
2022/11/30 05:34:15;;;;;;;8.40;7.60;;;;;;;4.35;100.00;98875.59;15285511;19;20062;-56
2022/11/30 05:39:39;;;;;;;8.60;7.78;;;;;;;4.25;100.00;98872.75;15308157;19;20075;-54
2022/11/30 05:45:07;;;;;;;8.30;7.60;;;;;;;4.24;100.00;98875.50;15291668;19;20015;-56
2022/11/30 05:50:32;;;;;;;9.35;8.40;;;;;;;4.17;100.00;98883.13;15289180;19;20027;-54
2022/11/30 05:55:56;;;;;;;9.52;8.55;;;;;;;4.19;100.00;98889.19;15275147;19;20011;-55
2022/11/30 06:01:25;;;;;;;8.80;7.93;;;;;;;4.17;100.00;98885.78;15272562;19;20018;-52
2022/11/30 06:06:54;;;;;;;8.85;7.95;;;;;;;4.15;100.00;98890.38;15270037;19;20095;-54
2022/11/30 06:12:19;;;;;;;9.05;8.18;;;;;;;4.13;100.00;98893.13;15267290;19;20041;-54
2022/11/30 06:17:47;;;;;;;9.73;8.35;;;;;;;4.11;100.00;98892.41;15264392;19;20010;-53
2022/11/30 06:23:18;;;;;;;8.57;7.78;;;;;;;4.11;100.00;98911.09;15266524;19;20024;-50
2022/11/30 06:28:42;;;;;;;9.47;8.57;;;;;;;4.09;100.00;98902.34;15268095;19;20022;-54
2022/11/30 06:34:10;;;;;;;8.73;7.93;;;;;;;4.07;100.00;98904.25;15270349;19;20023;-55
2022/11/30 06:39:35;;;;;;;9.27;8.38;;;;;;;4.08;100.00;98910.41;15268804;19;20014;-52
2022/11/30 06:45:21;;;;;;;8.60;7.70;;;;;;;4.06;100.00;98904.38;15264011;19;20074;-57
2022/11/30 06:50:48;;;;;;;9.15;8.25;;;;;;;4.03;100.00;98912.56;15269979;19;20018;-54
2022/11/30 06:56:14;;;;;;;9.27;8.38;;;;;;;4.03;100.00;98918.75;15275729;19;20455;-52
2022/11/30 07:01:38;;;;;;;8.88;8.07;;;;;;;4.03;100.00;98917.91;15283378;19;20025;-53
2022/11/30 07:07:06;;;;;;;9.93;8.45;;;;;;;3.99;100.00;98920.78;15280674;19;20014;-51
2022/11/30 07:12:31;;;;;;;9.32;8.43;;;;;;;3.95;100.00;98921.94;15278289;19;20018;-55
2022/11/30 07:17:56;;;;;;;9.20;8.30;;;;;;;3.90;100.00;98934.75;15276760;19;20032;-53
2022/11/30 07:29:13;;;;;;;9.30;8.40;;;;;;;3.91;100.00;98920.47;15277506;19;20015;-53
2022/11/30 07:34:38;;;;;;;9.38;8.48;;;;;;;3.96;100.00;98933.47;15282868;19;20660;-52
2022/11/30 07:40:06;;;;;;;9.10;8.20;;;;;;;4.03;100.00;98928.56;15280464;19;20026;-53
2022/11/30 07:45:30;;;;;;;9.00;8.10;;;;;;;4.13;100.00;98934.97;15278620;19;20463;-51
2022/11/30 07:50:54;;;;;;;8.30;7.50;;;;;;;4.20;100.00;98930.06;15279341;19;20426;-52
2022/11/30 07:56:23;;;;;;;7.90;7.20;;;;;;;4.28;100.00;98938.34;15273389;19;20031;-52
2022/11/30 08:01:47;;;;;;;9.35;7.97;;;;;;;4.32;100.00;98931.84;15279924;19;20459;-52
2022/11/30 08:07:12;;;;;;;8.32;7.53;;;;;;;4.33;100.00;98930.91;15277883;19;20094;-53
2022/11/30 08:12:39;;;;;;;9.00;7.43;;;;;;;4.34;100.00;98937.94;15273620;19;20014;-54
2022/11/30 08:18:05;;;;;;;8.43;7.63;;;;;;;4.38;100.00;98944.75;15271129;19;20089;-55
2022/11/30 08:23:38;;;;;;;8.18;7.38;;;;;;;4.43;100.00;98947.09;15276580;19;20018;-54
2022/11/30 08:29:05;;;;;;;8.18;7.30;;;;;;;4.44;100.00;98935.44;15276553;19;20486;-54
2022/11/30 08:34:30;;;;;;;8.05;7.25;;;;;;;4.48;100.00;98935.13;15280483;19;20025;-54
2022/11/30 08:39:54;;;;;;;8.07;7.28;;;;;;;4.52;100.00;98935.78;15278759;19;20367;-50
2022/11/30 08:45:23;;;;;;;7.82;7.10;;;;;;;4.56;100.00;98952.41;15280839;19;20486;-55
2022/11/30 08:50:47;;;;;;;7.97;7.20;;;;;;;4.61;100.00;98953.78;15277181;19;20093;-53
2022/11/30 08:56:15;;;;;;;7.95;7.25;;;;;;;4.66;100.00;98952.59;15272894;19;20086;-53
2022/11/30 09:01:44;;;;;;;8.27;7.47;;;;;;;4.69;100.00;98949.69;15276736;19;20018;-53
2022/11/30 09:07:08;;;;;;;8.60;7.72;;;;;;;4.74;100.00;98958.25;15277959;19;20105;-53
2022/11/30 09:12:36;;;;;;;7.85;7.15;;;;;;;4.78;100.00;98965.03;15272448;19;20015;-53
2022/11/30 09:18:04;;;;;;;8.75;7.80;;;;;;;4.85;100.00;98973.47;15268786;19;20022;-51
2022/11/30 09:23:36;;;;;;;8.68;7.88;;;;;;;4.91;100.00;98983.72;15270913;19;20023;-53
2022/11/30 09:29:01;;;;;;;7.82;7.03;;;;;;;4.96;100.00;98981.53;15273032;19;20014;-53
2022/11/30 09:34:29;;;;;;;8.98;7.38;;;;;;;5.01;100.00;98979.41;15277872;19;20014;-54
2022/11/30 09:39:53;;;;;;;7.82;7.07;;;;;;;5.07;100.00;98984.28;15273041;19;20780;-53
2022/11/30 09:45:26;;;;;;;7.97;7.18;;;;;;;5.11;100.00;98990.28;15276351;19;20022;-55
2022/11/30 09:50:56;;;;;;;9.52;7.15;;;;;;;5.16;100.00;98985.44;15272764;19;20102;-54
2022/11/30 09:56:29;;;;;;;8.55;7.05;;;;;;;5.19;100.00;98987.88;15266217;19;20081;-53
2022/11/30 10:01:54;;;;;;;8.30;7.50;;;;;;;5.23;100.00;98981.34;15274770;19;20021;-54
2022/11/30 10:07:45;;;;;;;7.80;7.00;;;;;;;5.26;100.00;98982.94;15269431;19;20018;-53
2022/11/30 10:13:17;;;;;;;;;;;;;;;5.27;100.00;98967.75;15274697;19;20483;-49
2022/11/30 10:18:55;;;;;;;7.57;6.88;;;;;;;5.37;100.00;98980.31;15268504;19;19918;-51
2022/11/30 10:24:33;;;;;;;8.10;6.82;;;;;;;5.43;100.00;98976.34;15269976;19;20102;-51
2022/11/30 10:29:59;;;;;;;7.45;6.75;;;;;;;5.49;100.00;98972.38;15266296;19;20018;-55
2022/11/30 10:35:33;;;;;;;7.95;7.15;;;;;;;5.53;100.00;98963.13;15273159;19;20023;-55
2022/11/30 10:41:07;;;;;;;7.55;6.85;;;;;;;5.59;100.00;98970.69;15263742;19;20011;-50
2022/11/30 10:46:39;;;;;;;8.48;7.22;;;;;;;5.63;100.00;98958.81;15273354;19;20023;-53
2022/11/30 10:52:08;;;;;;;7.73;7.03;;;;;;;5.65;100.00;98951.50;15271779;19;20357;-52
2022/11/30 10:57:37;;;;;;;7.50;6.80;;;;;;;5.72;100.00;98951.88;15259685;19;20014;-54
2022/11/30 11:03:01;;;;;;;7.50;6.80;;;;;;;5.76;100.00;98953.38;15272686;19;20775;-54
2022/11/30 11:08:27;;;;;;;7.72;6.93;;;;;;;5.80;100.00;98954.84;15267532;19;20367;-50
2022/11/30 11:13:55;;;;;;;8.65;7.32;;;;;;;5.80;100.00;98943.28;15269436;19;20018;-53
2022/11/30 11:19:35;;;;;;;7.68;6.97;;;;;;;5.82;100.00;98947.53;15264391;19;20471;-52
2022/11/30 11:25:04;;;;;;;9.10;7.27;;;;;;;5.90;100.00;98959.50;15270920;19;20612;-49
2022/11/30 11:30:35;;;;;;;7.63;6.93;;;;;;;5.92;100.00;98955.72;15260566;19;20011;-53
2022/11/30 11:36:01;;;;;;;8.30;6.77;;;;;;;5.94;100.00;98939.56;15270256;19;20011;-55
2022/11/30 11:41:28;;;;;;;8.00;7.20;;;;;;;5.97;100.00;98948.19;15278961;19;20018;-51
2022/11/30 11:47:06;;;;;;;7.88;7.18;;;;;;;5.95;100.00;98938.56;15273325;19;20022;-53
2022/11/30 11:52:31;;;;;;;9.00;7.20;;;;;;;5.93;100.00;98943.22;15279402;19;20014;-52
2022/11/30 11:58:04;;;;;;;8.27;7.40;;;;;;;5.98;100.00;98941.88;15277417;19;20034;-55
2022/11/30 12:03:36;;;;;;;;;;;;;;;5.88;100.00;98937.34;15281359;19;20010;-52
2022/11/30 12:09:06;;;;;;;8.48;7.68;;;;;;;6.02;100.00;98929.16;15279163;19;19954;-54
2022/11/30 12:14:34;;;;;;;8.70;7.90;;;;;;;6.09;100.00;98937.53;15280937;19;20015;-53
2022/11/30 12:20:15;;;;;;;8.85;7.88;;;;;;;6.12;100.00;98935.47;15274059;19;20018;-51
2022/11/30 12:25:51;;;;;;;9.17;7.63;;;;;;;6.17;100.00;98935.94;15283016;19;20046;-54
2022/11/30 12:31:21;;;;;;;9.85;8.13;;;;;;;6.28;100.00;98942.31;15278013;19;20006;-54
2022/11/30 12:36:58;;;;;;;9.32;8.05;;;;;;;6.32;100.00;98933.03;15279990;19;20014;-49
2022/11/30 12:42:30;;;;;;;12.80;10.60;;;;;;;6.39;100.00;98934.28;15277862;19;20020;-54
2022/11/30 12:48:03;;;;;;;15.57;12.20;;;;;;;6.41;100.00;98939.50;15279443;19;20349;-56
2022/11/30 12:53:36;;;;;;;16.85;13.48;;;;;;;6.46;100.00;98937.31;15279848;19;20042;-54
2022/11/30 12:59:07;;;;;;;;;;;;;;;6.40;100.00;98933.31;15277551;19;20086;-51
2022/11/30 13:04:37;;;;;;;14.38;12.07;;;;;;;6.52;100.00;98933.31;15276253;19;19929;-52
2022/11/30 13:10:09;;;;;;;15.85;12.25;;;;;;;6.53;100.00;98937.66;15275297;19;20015;-52
2022/11/30 13:15:36;;;;;;;14.27;12.00;;;;;;;6.53;100.00;98934.97;15271551;19;20017;-52
2022/11/30 13:21:06;;;;;;;14.43;11.73;;;;;;;6.51;100.00;98936.94;15274453;19;20026;-54
2022/11/30 13:26:39;;;;;;;15.27;12.60;;;;;;;6.47;100.00;98926.47;15270319;19;20029;-50
2022/11/30 13:32:10;;;;;;;16.67;12.63;;;;;;;6.43;100.00;98930.38;15275469;19;20029;-54
2022/11/30 13:38:08;;;;;;;;;;;;;;;6.30;100.00;98933.19;15271345;19;20025;-50
2022/11/30 13:43:55;;;;;;;14.38;11.32;;;;;;;6.32;100.00;98933.91;15272939;19;19911;-54
2022/11/30 13:49:29;;;;;;;12.80;10.93;;;;;;;6.28;100.00;98942.31;15271537;19;20790;-54
2022/11/30 13:54:56;;;;;;;13.77;11.75;;;;;;;6.24;100.00;98935.47;15275265;19;20011;-51
2022/11/30 14:00:55;;;;;;;14.73;11.45;;;;;;;6.18;100.00;98947.53;15270818;19;20022;-56
2022/11/30 14:06:48;;;;;;;14.82;12.45;;;;;;;6.13;100.00;98953.22;15271720;19;20015;-57
2022/11/30 14:12:43;;;;;;;15.43;12.55;;;;;;;6.11;100.00;98955.16;15271358;19;20027;-50
2022/11/30 14:18:18;;;;;;;14.07;11.93;;;;;;;6.08;100.00;98959.91;15266620;19;20014;-55
2022/11/30 14:23:58;;;;;;;14.13;11.50;;;;;;;6.05;100.00;98974.38;15267132;19;20024;-55
2022/11/30 14:29:27;;;;;;;16.30;11.65;;;;;;;6.00;100.00;98971.22;15267528;19;20028;-57
2022/11/30 14:34:59;;;;;;;13.25;11.82;;;;;;;6.00;100.00;98974.72;15272222;19;20026;-52
2022/11/30 14:40:26;;;;;;;15.60;12.13;;;;;;;5.97;100.00;98976.75;15270784;19;20018;-54
2022/11/30 14:46:04;;;;;;;13.27;11.57;;;;;;;5.94;100.00;98974.34;15274470;19;20006;-54
2022/11/30 14:51:35;;;;;;;13.43;11.97;;;;;;;5.89;100.00;98982.69;15271391;19;20014;-57
2022/11/30 14:57:07;;;;;;;16.45;13.15;;;;;;;5.86;100.00;98986.44;15269409;19;20023;-56
2022/11/30 15:02:37;;;;;;;14.07;12.38;;;;;;;5.81;100.00;98988.66;15265197;19;20029;-55
2022/11/30 15:08:05;;;;;;;14.68;11.98;;;;;;;5.79;100.00;98984.34;15270828;19;20030;-52
2022/11/30 15:13:30;;;;;;;15.27;12.68;;;;;;;5.76;100.00;98987.28;15276398;19;20014;-56
2022/11/30 15:18:55;;;;;;;13.57;12.02;;;;;;;5.72;100.00;98994.66;15283097;19;20349;-57
2022/11/30 15:24:29;;;;;;;16.33;13.27;;;;;;;5.69;100.00;98989.56;15281365;19;20018;-54
2022/11/30 15:30:00;;;;;;;15.07;12.75;;;;;;;5.64;100.00;98987.25;15282610;19;20035;-58
2022/11/30 15:35:32;;;;;;;14.25;12.40;;;;;;;5.60;100.00;98985.78;15285544;19;20014;-54
2022/11/30 15:41:21;;;;;;;14.32;12.25;;;;;;;5.53;100.00;98990.72;15282361;19;20021;-53
2022/11/30 15:46:48;;;;;;;15.23;11.88;;;;;;;5.47;100.00;98998.34;15283162;19;20022;-56
2022/11/30 15:52:18;;;;;;;14.02;11.25;;;;;;;5.33;100.00;98994.88;15279945;19;20413;-54
2022/11/30 15:58:07;;;;;;;12.33;11.03;;;;;;;5.23;100.00;99001.88;15278104;19;20040;-52
2022/11/30 16:03:32;;;;;;;13.07;11.07;;;;;;;5.16;100.00;98993.44;15282391;19;20097;-55
2022/11/30 16:08:58;;;;;;;13.13;11.40;;;;;;;5.14;100.00;98997.22;15275594;19;20077;-51
2022/11/30 16:14:25;;;;;;;14.00;12.02;;;;;;;5.11;100.00;99000.97;15283525;19;20022;-54
2022/11/30 16:19:57;;;;;;;12.98;11.68;;;;;;;5.07;100.00;99008.31;15274543;19;20054;-53
2022/11/30 16:25:25;;;;;;;13.53;11.77;;;;;;;5.04;100.00;99011.25;15281552;19;20129;-53
2022/11/30 16:30:54;;;;;;;13.05;11.65;;;;;;;5.00;100.00;99009.75;15275497;19;20024;-54
2022/11/30 16:36:20;;;;;;;13.90;12.10;;;;;;;5.00;100.00;99006.22;15281608;19;20089;-55
2022/11/30 16:41:45;;;;;;;13.75;11.60;;;;;;;4.98;100.00;99006.31;15279196;19;20468;-56
2022/11/30 16:47:12;;;;;;;13.65;12.25;;;;;;;4.96;100.00;99015.44;15273393;19;20360;-53
2022/11/30 16:52:38;;;;;;;12.73;11.43;;;;;;;4.94;100.00;99010.16;15277927;19;20014;-51
2022/11/30 16:58:03;;;;;;;13.98;12.48;;;;;;;4.93;100.00;99025.34;15274669;19;20022;-55
2022/11/30 17:03:36;;;;;;;13.02;11.70;;;;;;;4.91;100.00;99016.59;15282227;19;20034;-58
2022/11/30 17:09:01;;;;;;;13.20;11.80;;;;;;;4.90;100.00;99025.56;15272119;19;20745;-53
2022/11/30 17:14:28;;;;;;;13.48;12.07;;;;;;;4.91;100.00;99027.28;15272155;19;20029;-53
2022/11/30 17:19:48;;;;;;;13.27;11.88;;;;;;;4.91;100.00;99032.63;15267193;19;20379;-56
2022/11/30 17:25:23;;;;;;;13.27;11.87;;;;;;;4.88;100.00;99040.00;15274177;19;20010;-52
2022/11/30 17:30:48;;;;;;;14.50;12.65;;;;;;;4.89;100.00;99049.72;15272687;19;20007;-56
2022/11/30 17:36:19;;;;;;;15.13;12.75;;;;;;;4.86;100.00;99053.47;15271055;19;20021;-57
2022/11/30 17:41:45;;;;;;;13.00;11.65;;;;;;;4.86;100.00;99064.16;15271967;19;20022;-49
2022/11/30 17:47:09;;;;;;;12.75;11.45;;;;;;;4.86;100.00;99055.28;15267637;19;20011;-57
2022/11/30 17:52:36;;;;;;;12.60;11.30;;;;;;;4.81;100.00;99065.44;15270501;19;20030;-51
2022/11/30 17:58:01;;;;;;;13.07;11.68;;;;;;;4.70;100.00;99052.84;15268492;19;20011;-55
2022/11/30 18:03:26;;;;;;;13.25;11.85;;;;;;;4.68;100.00;99068.09;15270914;19;20514;-53
2022/11/30 18:08:54;;;;;;;13.50;12.10;;;;;;;4.63;100.00;99065.75;15268401;19;20025;-57
2022/11/30 18:14:19;;;;;;;13.60;12.20;;;;;;;4.58;100.00;99063.41;15274715;19;20503;-52
2022/11/30 18:19:43;;;;;;;14.27;12.77;;;;;;;4.48;100.00;99079.19;15267522;19;20025;-50
2022/11/30 18:25:14;;;;;;;13.82;12.43;;;;;;;4.44;100.00;99076.84;15273362;19;20089;-55
2022/11/30 18:30:38;;;;;;;12.65;11.38;;;;;;;4.39;100.00;99076.34;15270493;19;20097;-51
2022/11/30 18:36:05;;;;;;;14.48;13.02;;;;;;;4.37;100.00;99083.59;15274576;19;20078;-51
2022/11/30 18:41:33;;;;;;;13.02;11.73;;;;;;;4.32;100.00;99090.09;15270334;19;20086;-55
2022/11/30 18:46:58;;;;;;;13.85;11.25;;;;;;;4.28;100.00;99093.94;15245312;19;20074;-52
2022/11/30 18:52:22;;;;;;;11.70;10.60;;;;;;;4.25;100.00;99099.47;15283467;19;20022;-54
2022/11/30 18:57:49;;;;;;;11.80;10.68;;;;;;;4.25;100.00;99109.28;15279686;19;20014;-51
2022/11/30 19:03:14;;;;;;;11.38;10.38;;;;;;;4.23;100.00;99112.06;15288671;19;20478;-53
2022/11/30 19:08:41;;;;;;;11.00;9.90;;;;;;;4.20;100.00;99112.25;15284390;19;20054;-56
2022/11/30 19:14:09;;;;;;;11.75;10.55;;;;;;;4.20;100.00;99114.91;15286012;19;20082;-54
2022/11/30 19:19:34;;;;;;;12.07;10.88;;;;;;;4.19;100.00;99115.03;15277919;19;20019;-57
2022/11/30 19:25:05;;;;;;;11.63;10.50;;;;;;;4.18;100.00;99116.00;15287822;19;20732;-53
2022/11/30 19:30:40;;;;;;;11.15;10.05;;;;;;;4.18;100.00;99129.31;15283612;19;20014;-54
2022/11/30 19:36:08;;;;;;;11.75;10.55;;;;;;;4.16;100.00;99121.44;15324988;19;19999;-55
2022/11/30 19:41:33;;;;;;;10.57;9.48;;;;;;;4.14;100.00;99123.34;15281714;19;20018;-56
2022/11/30 19:47:00;;;;;;;10.75;9.65;;;;;;;4.11;100.00;99123.53;15280254;19;20032;-58
2022/11/30 19:52:25;;;;;;;10.90;9.80;;;;;;;4.04;100.00;99117.75;15275036;19;20019;-59
2022/11/30 19:57:49;;;;;;;10.52;9.52;;;;;;;4.01;100.00;99126.84;15280093;19;20018;-56
2022/11/30 20:03:23;;;;;;;10.85;9.65;;;;;;;3.98;100.00;99143.03;15280648;19;20020;-55
2022/11/30 20:08:48;;;;;;;10.90;9.90;;;;;;;3.93;100.00;99137.16;15278392;19;20010;-55
2022/11/30 20:14:13;;;;;;;10.52;9.52;;;;;;;3.88;100.00;99144.59;15281721;19;20018;-53
2022/11/30 20:19:40;;;;;;;10.60;9.60;;;;;;;3.80;100.00;99139.75;15277713;19;20113;-57
2022/11/30 20:25:14;;;;;;;11.23;10.13;;;;;;;3.71;100.00;99143.03;15277969;19;20038;-54
2022/11/30 20:30:39;;;;;;;10.77;9.77;;;;;;;3.65;100.00;99144.28;15274204;19;20025;-52
2022/11/30 20:36:09;;;;;;;10.50;9.50;;;;;;;3.58;100.00;99134.13;15276571;19;20459;-54
2022/11/30 20:41:35;;;;;;;11.63;9.55;;;;;;;3.50;100.00;99145.25;15276473;19;20018;-55
2022/11/30 20:46:59;;;;;;;11.35;10.20;;;;;;;3.42;100.00;99145.75;15279156;19;20018;-57
2022/11/30 20:52:26;;;;;;;11.20;10.10;;;;;;;3.32;100.00;99153.50;15275718;19;20024;-57
2022/11/30 20:57:51;;;;;;;11.77;10.32;;;;;;;3.31;100.00;99156.22;15272972;19;20086;-56
2022/11/30 21:03:16;;;;;;;12.20;10.90;;;;;;;3.31;100.00;99165.09;15276966;19;20177;-54
2022/11/30 21:08:45;;;;;;;11.10;10.00;;;;;;;3.30;100.00;99167.84;15277526;19;20014;-56
2022/11/30 21:14:12;;;;;;;11.18;10.13;;;;;;;3.30;100.00;99171.38;15276990;19;20070;-55
2022/11/30 21:19:36;;;;;;;11.73;10.63;;;;;;;3.31;100.00;99166.88;15273875;19;20014;-56
2022/11/30 21:25:10;;;;;;;11.38;10.20;;;;;;;3.30;100.00;99174.03;15273925;19;20010;-56
2022/11/30 21:30:36;;;;;;;10.52;9.52;;;;;;;3.30;100.00;99179.38;15272726;19;20018;-55
2022/11/30 21:36:00;;;;;;;10.98;9.88;;;;;;;3.25;100.00;99178.78;15272919;19;20344;-54
2022/11/30 21:41:27;;;;;;;11.82;9.52;;;;;;;3.17;100.00;99181.06;15275293;19;20026;-56
2022/11/30 21:46:54;;;;;;;11.45;10.27;;;;;;;3.13;100.00;99168.91;15275022;19;20021;-56
2022/11/30 21:52:19;;;;;;;11.93;10.73;;;;;;;3.13;100.00;99190.19;15272798;19;20378;-57
2022/11/30 21:57:46;;;;;;;10.90;9.80;;;;;;;3.12;100.00;99181.38;15270962;19;20534;-54
2022/11/30 22:03:11;;;;;;;11.95;9.90;;;;;;;3.11;100.00;99192.97;15274356;19;20022;-56
2022/11/30 22:08:37;;;;;;;11.57;10.48;;;;;;;3.05;100.00;99190.69;15266271;19;20494;-57
2022/11/30 22:14:05;;;;;;;12.52;11.30;;;;;;;3.04;100.00;99191.66;15276669;19;20026;-53
2022/11/30 22:19:29;;;;;;;13.43;12.05;;;;;;;3.00;100.00;99196.28;15265153;19;20014;-57
2022/11/30 22:25:00;;;;;;;13.18;11.90;;;;;;;2.97;100.00;99191.16;15264962;19;20010;-54
2022/11/30 22:30:27;;;;;;;14.70;13.10;;;;;;;2.92;100.00;99202.09;15270291;19;20033;-54
2022/11/30 22:35:52;;;;;;;14.05;12.65;;;;;;;2.89;100.00;99204.06;15272887;19;20006;-53
2022/11/30 22:41:18;;;;;;;13.98;12.68;;;;;;;2.84;100.00;99200.84;15268615;19;20987;-54
2022/11/30 22:46:46;;;;;;;14.73;13.32;;;;;;;2.81;100.00;99206.34;15269423;19;20035;-51
2022/11/30 22:52:11;;;;;;;15.43;13.93;;;;;;;2.73;100.00;99197.03;15269333;19;20098;-55
2022/11/30 22:57:44;;;;;;;15.02;13.52;;;;;;;2.68;100.00;99207.06;15263929;19;20017;-50
2022/11/30 23:03:11;;;;;;;15.90;14.27;;;;;;;2.67;100.00;99197.38;15271920;19;20022;-54
2022/11/30 23:08:37;;;;;;;15.02;13.15;;;;;;;2.62;100.00;99196.81;15268429;19;20082;-53
2022/11/30 23:14:05;;;;;;;16.17;14.45;;;;;;;2.60;100.00;99193.38;15273222;19;20078;-58
2022/11/30 23:19:32;;;;;;;14.77;13.27;;;;;;;2.57;100.00;99188.25;15266069;19;20018;-54
2022/11/30 23:25:03;;;;;;;16.63;14.10;;;;;;;2.51;100.00;99186.78;15261909;19;20086;-53
2022/11/30 23:30:28;;;;;;;15.33;13.83;;;;;;;2.50;100.00;99192.22;15267891;19;20614;-53
2022/11/30 23:35:55;;;;;;;15.50;13.88;;;;;;;2.45;100.00;99185.34;15276007;19;20413;-54
2022/11/30 23:41:20;;;;;;;15.43;13.88;;;;;;;2.46;100.00;99194.22;15280593;19;20078;-55
2022/11/30 23:46:45;;;;;;;15.80;14.20;;;;;;;2.44;100.00;99188.13;15284869;19;20018;-51
2022/11/30 23:52:13;;;;;;;17.08;15.38;;;;;;;2.41;100.00;99191.78;15279630;19;20354;-54
2022/11/30 23:57:38;;;;;;;16.50;14.80;;;;;;;2.41;100.00;99197.13;15280745;19;20485;-54
